sensor_id;sensor_type;location;lat;lon;timestamp;temperature;humidity
21275;DHT22;36472;52.170;20.884;2023-02-13T00:01:36;26.20;40.40
21275;DHT22;36472;52.170;20.884;2023-02-13T00:04:05;26.20;40.40
21275;DHT22;36472;52.170;20.884;2023-02-13T00:06:35;26.30;40.50
21275;DHT22;36472;52.170;20.884;2023-02-13T00:09:04;26.30;40.50
21275;DHT22;36472;52.170;20.884;2023-02-13T00:11:37;26.20;40.40
21275;DHT22;36472;52.170;20.884;2023-02-13T00:14:06;26.30;40.40
21275;DHT22;36472;52.170;20.884;2023-02-13T00:16:35;26.30;40.40
21275;DHT22;36472;52.170;20.884;2023-02-13T00:19:04;26.30;40.30
21275;DHT22;36472;52.170;20.884;2023-02-13T00:21:34;26.30;40.30
21275;DHT22;36472;52.170;20.884;2023-02-13T00:24:04;26.40;40.30
21275;DHT22;36472;52.170;20.884;2023-02-13T00:26:33;26.40;40.30
21275;DHT22;36472;52.170;20.884;2023-02-13T00:29:03;26.40;40.20
21275;DHT22;36472;52.170;20.884;2023-02-13T00:31:32;26.40;40.20
21275;DHT22;36472;52.170;20.884;2023-02-13T00:34:01;26.30;40.20
21275;DHT22;36472;52.170;20.884;2023-02-13T00:36:30;26.30;40.20
21275;DHT22;36472;52.170;20.884;2023-02-13T00:39:01;26.30;40.10
21275;DHT22;36472;52.170;20.884;2023-02-13T00:41:30;26.40;40.20
21275;DHT22;36472;52.170;20.884;2023-02-13T00:43:59;26.40;40.20
21275;DHT22;36472;52.170;20.884;2023-02-13T00:46:30;26.40;40.20
21275;DHT22;36472;52.170;20.884;2023-02-13T00:48:59;26.40;40.20
21275;DHT22;36472;52.170;20.884;2023-02-13T00:51:28;26.40;40.20
21275;DHT22;36472;52.170;20.884;2023-02-13T00:53:58;26.40;40.30
21275;DHT22;36472;52.170;20.884;2023-02-13T00:56:28;26.30;40.30
21275;DHT22;36472;52.170;20.884;2023-02-13T00:58:58;26.40;40.20
21275;DHT22;36472;52.170;20.884;2023-02-13T01:01:26;26.40;40.20
21275;DHT22;36472;52.170;20.884;2023-02-13T01:03:56;26.40;40.20
21275;DHT22;36472;52.170;20.884;2023-02-13T01:06:27;26.40;40.10
21275;DHT22;36472;52.170;20.884;2023-02-13T01:08:56;26.40;40.20
21275;DHT22;36472;52.170;20.884;2023-02-13T01:11:24;26.40;40.10
21275;DHT22;36472;52.170;20.884;2023-02-13T01:13:55;26.40;40.10
21275;DHT22;36472;52.170;20.884;2023-02-13T01:16:24;26.40;40.10
21275;DHT22;36472;52.170;20.884;2023-02-13T01:18:53;26.40;40.20
21275;DHT22;36472;52.170;20.884;2023-02-13T01:21:22;26.40;40.20
21275;DHT22;36472;52.170;20.884;2023-02-13T01:23:53;26.30;40.30
21275;DHT22;36472;52.170;20.884;2023-02-13T01:26:23;26.30;40.50
21275;DHT22;36472;52.170;20.884;2023-02-13T01:28:52;26.30;40.40
21275;DHT22;36472;52.170;20.884;2023-02-13T01:31:24;26.30;40.30
21275;DHT22;36472;52.170;20.884;2023-02-13T01:33:56;26.30;40.30
21275;DHT22;36472;52.170;20.884;2023-02-13T01:36:26;26.40;40.40
21275;DHT22;36472;52.170;20.884;2023-02-13T01:38:57;26.40;40.20
21275;DHT22;36472;52.170;20.884;2023-02-13T01:41:26;26.40;40.20
21275;DHT22;36472;52.170;20.884;2023-02-13T01:43:59;26.40;40.20
21275;DHT22;36472;52.170;20.884;2023-02-13T01:46:32;26.50;40.20
21275;DHT22;36472;52.170;20.884;2023-02-13T01:49:10;26.50;40.10
21275;DHT22;36472;52.170;20.884;2023-02-13T01:51:42;26.50;40.20
21275;DHT22;36472;52.170;20.884;2023-02-13T01:54:15;26.50;40.10
21275;DHT22;36472;52.170;20.884;2023-02-13T01:56:50;26.40;40.10
21275;DHT22;36472;52.170;20.884;2023-02-13T01:59:27;26.40;40.20
21275;DHT22;36472;52.170;20.884;2023-02-13T02:01:59;26.40;40.30
21275;DHT22;36472;52.170;20.884;2023-02-13T02:04:32;26.40;40.20
21275;DHT22;36472;52.170;20.884;2023-02-13T02:07:12;26.50;40.20
21275;DHT22;36472;52.170;20.884;2023-02-13T02:09:52;26.40;40.10
21275;DHT22;36472;52.170;20.884;2023-02-13T02:12:28;26.50;40.10
21275;DHT22;36472;52.170;20.884;2023-02-13T02:15:08;26.50;40.10
21275;DHT22;36472;52.170;20.884;2023-02-13T02:17:37;26.50;40.00
21275;DHT22;36472;52.170;20.884;2023-02-13T02:20:18;26.50;40.00
21275;DHT22;36472;52.170;20.884;2023-02-13T02:23:24;26.50;39.90
21275;DHT22;36472;52.170;20.884;2023-02-13T02:29:59;26.60;39.90
21275;DHT22;36472;52.170;20.884;2023-02-13T02:33:08;26.60;39.90
21275;DHT22;36472;52.170;20.884;2023-02-13T02:35:59;26.60;39.80
21275;DHT22;36472;52.170;20.884;2023-02-13T02:38:46;26.60;39.80
21275;DHT22;36472;52.170;20.884;2023-02-13T02:41:41;26.60;39.80
21275;DHT22;36472;52.170;20.884;2023-02-13T02:44:32;26.50;39.80
21275;DHT22;36472;52.170;20.884;2023-02-13T02:47:21;26.50;39.80
21275;DHT22;36472;52.170;20.884;2023-02-13T02:50:24;26.50;39.80
21275;DHT22;36472;52.170;20.884;2023-02-13T02:53:16;26.50;39.90
21275;DHT22;36472;52.170;20.884;2023-02-13T02:55:57;26.50;39.90
21275;DHT22;36472;52.170;20.884;2023-02-13T02:58:36;26.60;39.90
21275;DHT22;36472;52.170;20.884;2023-02-13T03:01:27;26.60;39.90
21275;DHT22;36472;52.170;20.884;2023-02-13T03:04:21;26.60;39.80
21275;DHT22;36472;52.170;20.884;2023-02-13T03:07:15;26.60;39.70
21275;DHT22;36472;52.170;20.884;2023-02-13T03:09:48;26.60;39.80
21275;DHT22;36472;52.170;20.884;2023-02-13T03:12:41;26.50;39.80
21275;DHT22;36472;52.170;20.884;2023-02-13T03:15:32;26.60;39.80
21275;DHT22;36472;52.170;20.884;2023-02-13T03:18:24;26.60;39.70
21275;DHT22;36472;52.170;20.884;2023-02-13T03:21:15;26.60;39.60
21275;DHT22;36472;52.170;20.884;2023-02-13T03:24:26;26.60;39.70
21275;DHT22;36472;52.170;20.884;2023-02-13T03:27:06;26.60;39.60
21275;DHT22;36472;52.170;20.884;2023-02-13T03:29:45;26.60;39.70
21275;DHT22;36472;52.170;20.884;2023-02-13T03:32:40;26.60;39.60
21275;DHT22;36472;52.170;20.884;2023-02-13T03:35:33;26.60;39.70
21275;DHT22;36472;52.170;20.884;2023-02-13T03:38:26;26.60;39.60
21275;DHT22;36472;52.170;20.884;2023-02-13T03:41:04;26.60;39.70
21275;DHT22;36472;52.170;20.884;2023-02-13T03:43:57;26.60;39.70
21275;DHT22;36472;52.170;20.884;2023-02-13T03:46:34;26.60;39.80
21275;DHT22;36472;52.170;20.884;2023-02-13T03:49:10;26.60;40.50
21275;DHT22;36472;52.170;20.884;2023-02-13T03:52:05;26.60;39.80
21275;DHT22;36472;52.170;20.884;2023-02-13T03:54:41;26.60;39.80
21275;DHT22;36472;52.170;20.884;2023-02-13T03:57:33;26.60;39.80
21275;DHT22;36472;52.170;20.884;2023-02-13T04:00:25;26.60;39.80
21275;DHT22;36472;52.170;20.884;2023-02-13T04:03:06;26.60;39.80
21275;DHT22;36472;52.170;20.884;2023-02-13T04:05:44;26.60;39.90
21275;DHT22;36472;52.170;20.884;2023-02-13T04:08:17;26.60;39.80
21275;DHT22;36472;52.170;20.884;2023-02-13T04:10:49;26.60;39.90
21275;DHT22;36472;52.170;20.884;2023-02-13T04:13:28;26.60;39.90
21275;DHT22;36472;52.170;20.884;2023-02-13T04:16:07;26.60;39.90
21275;DHT22;36472;52.170;20.884;2023-02-13T04:18:39;26.60;39.90
21275;DHT22;36472;52.170;20.884;2023-02-13T04:21:10;26.60;39.90
21275;DHT22;36472;52.170;20.884;2023-02-13T04:23:39;26.60;39.90
21275;DHT22;36472;52.170;20.884;2023-02-13T04:26:16;26.60;40.00
21275;DHT22;36472;52.170;20.884;2023-02-13T04:28:48;26.60;40.00
21275;DHT22;36472;52.170;20.884;2023-02-13T04:31:17;26.60;40.00
21275;DHT22;36472;52.170;20.884;2023-02-13T04:33:47;26.60;39.90
21275;DHT22;36472;52.170;20.884;2023-02-13T04:36:15;26.50;39.80
21275;DHT22;36472;52.170;20.884;2023-02-13T04:38:44;26.50;40.00
21275;DHT22;36472;52.170;20.884;2023-02-13T04:41:13;26.60;40.00
21275;DHT22;36472;52.170;20.884;2023-02-13T04:43:43;26.60;40.00
21275;DHT22;36472;52.170;20.884;2023-02-13T04:46:13;26.60;39.90
21275;DHT22;36472;52.170;20.884;2023-02-13T04:48:43;26.70;40.00
21275;DHT22;36472;52.170;20.884;2023-02-13T04:51:13;26.70;40.00
21275;DHT22;36472;52.170;20.884;2023-02-13T04:53:42;26.70;39.80
21275;DHT22;36472;52.170;20.884;2023-02-13T04:56:11;26.70;39.80
21275;DHT22;36472;52.170;20.884;2023-02-13T04:58:40;26.70;39.80
21275;DHT22;36472;52.170;20.884;2023-02-13T05:01:14;26.70;39.80
21275;DHT22;36472;52.170;20.884;2023-02-13T05:03:44;26.70;39.80
21275;DHT22;36472;52.170;20.884;2023-02-13T05:06:13;26.70;39.80
21275;DHT22;36472;52.170;20.884;2023-02-13T05:08:43;26.60;39.70
21275;DHT22;36472;52.170;20.884;2023-02-13T05:11:11;26.60;39.90
21275;DHT22;36472;52.170;20.884;2023-02-13T05:13:40;26.50;40.10
21275;DHT22;36472;52.170;20.884;2023-02-13T05:16:09;26.50;40.00
21275;DHT22;36472;52.170;20.884;2023-02-13T05:18:40;26.60;40.10
21275;DHT22;36472;52.170;20.884;2023-02-13T05:21:09;26.60;40.00
21275;DHT22;36472;52.170;20.884;2023-02-13T05:23:56;26.60;40.10
21275;DHT22;36472;52.170;20.884;2023-02-13T05:26:24;26.50;39.90
21275;DHT22;36472;52.170;20.884;2023-02-13T05:28:54;26.50;39.90
21275;DHT22;36472;52.170;20.884;2023-02-13T05:31:40;26.60;40.00
21275;DHT22;36472;52.170;20.884;2023-02-13T05:34:10;26.60;39.90
21275;DHT22;36472;52.170;20.884;2023-02-13T05:36:39;26.60;39.90
21275;DHT22;36472;52.170;20.884;2023-02-13T05:39:08;26.60;39.80
21275;DHT22;36472;52.170;20.884;2023-02-13T05:41:37;26.60;39.80
21275;DHT22;36472;52.170;20.884;2023-02-13T05:44:06;26.60;39.80
21275;DHT22;36472;52.170;20.884;2023-02-13T05:46:36;26.70;39.80
21275;DHT22;36472;52.170;20.884;2023-02-13T05:49:08;26.70;39.70
21275;DHT22;36472;52.170;20.884;2023-02-13T05:51:39;26.70;39.70
21275;DHT22;36472;52.170;20.884;2023-02-13T05:54:08;26.70;39.70
21275;DHT22;36472;52.170;20.884;2023-02-13T05:56:37;26.70;39.60
21275;DHT22;36472;52.170;20.884;2023-02-13T05:59:06;26.60;39.60
21275;DHT22;36472;52.170;20.884;2023-02-13T06:01:35;26.70;39.70
21275;DHT22;36472;52.170;20.884;2023-02-13T06:04:05;26.60;39.60
21275;DHT22;36472;52.170;20.884;2023-02-13T06:06:35;26.60;39.70
21275;DHT22;36472;52.170;20.884;2023-02-13T06:09:04;26.60;39.70
21275;DHT22;36472;52.170;20.884;2023-02-13T06:11:34;26.60;40.30
21275;DHT22;36472;52.170;20.884;2023-02-13T06:14:03;26.60;39.60
21275;DHT22;36472;52.170;20.884;2023-02-13T06:16:32;26.60;39.60
21275;DHT22;36472;52.170;20.884;2023-02-13T06:19:01;26.60;39.60
21275;DHT22;36472;52.170;20.884;2023-02-13T06:21:30;26.60;39.60
21275;DHT22;36472;52.170;20.884;2023-02-13T06:24:01;26.60;39.60
21275;DHT22;36472;52.170;20.884;2023-02-13T06:26:30;26.70;39.50
21275;DHT22;36472;52.170;20.884;2023-02-13T06:28:59;26.70;39.40
21275;DHT22;36472;52.170;20.884;2023-02-13T06:31:28;26.70;39.30
21275;DHT22;36472;52.170;20.884;2023-02-13T06:33:57;26.70;39.30
21275;DHT22;36472;52.170;20.884;2023-02-13T06:36:26;26.70;39.30
21275;DHT22;36472;52.170;20.884;2023-02-13T06:38:55;26.70;39.30
21275;DHT22;36472;52.170;20.884;2023-02-13T06:41:25;26.70;39.40
21275;DHT22;36472;52.170;20.884;2023-02-13T06:43:54;26.60;39.40
21275;DHT22;36472;52.170;20.884;2023-02-13T06:46:23;26.60;39.40
21275;DHT22;36472;52.170;20.884;2023-02-13T06:48:52;26.60;39.40
21275;DHT22;36472;52.170;20.884;2023-02-13T06:51:21;26.50;39.50
21275;DHT22;36472;52.170;20.884;2023-02-13T06:53:50;26.60;39.50
21275;DHT22;36472;52.170;20.884;2023-02-13T06:56:19;26.60;39.50
21275;DHT22;36472;52.170;20.884;2023-02-13T06:58:50;26.60;39.50
21275;DHT22;36472;52.170;20.884;2023-02-13T07:01:19;26.60;39.60
21275;DHT22;36472;52.170;20.884;2023-02-13T07:03:48;26.60;39.70
21275;DHT22;36472;52.170;20.884;2023-02-13T07:06:17;26.60;39.80
21275;DHT22;36472;52.170;20.884;2023-02-13T07:08:47;26.70;39.80
21275;DHT22;36472;52.170;20.884;2023-02-13T07:11:18;26.60;39.90
21275;DHT22;36472;52.170;20.884;2023-02-13T07:13:47;26.50;40.10
21275;DHT22;36472;52.170;20.884;2023-02-13T07:16:18;26.60;40.20
21275;DHT22;36472;52.170;20.884;2023-02-13T07:18:47;26.60;40.10
21275;DHT22;36472;52.170;20.884;2023-02-13T07:21:16;26.60;40.10
21275;DHT22;36472;52.170;20.884;2023-02-13T07:23:45;26.60;40.10
21275;DHT22;36472;52.170;20.884;2023-02-13T07:26:14;26.70;40.00
21275;DHT22;36472;52.170;20.884;2023-02-13T07:28:43;26.60;40.00
21275;DHT22;36472;52.170;20.884;2023-02-13T07:31:12;26.70;40.10
21275;DHT22;36472;52.170;20.884;2023-02-13T07:33:43;26.60;40.10
21275;DHT22;36472;52.170;20.884;2023-02-13T07:36:12;26.60;40.20
21275;DHT22;36472;52.170;20.884;2023-02-13T07:38:41;26.60;40.20
21275;DHT22;36472;52.170;20.884;2023-02-13T07:41:10;26.70;40.50
21275;DHT22;36472;52.170;20.884;2023-02-13T07:43:39;26.60;40.20
21275;DHT22;36472;52.170;20.884;2023-02-13T07:46:08;26.70;40.10
21275;DHT22;36472;52.170;20.884;2023-02-13T07:48:38;26.70;40.30
21275;DHT22;36472;52.170;20.884;2023-02-13T07:51:08;26.70;40.30
21275;DHT22;36472;52.170;20.884;2023-02-13T07:53:37;26.70;40.20
21275;DHT22;36472;52.170;20.884;2023-02-13T07:56:07;26.80;40.30
21275;DHT22;36472;52.170;20.884;2023-02-13T07:58:37;26.80;40.30
21275;DHT22;36472;52.170;20.884;2023-02-13T08:01:07;26.70;40.00
21275;DHT22;36472;52.170;20.884;2023-02-13T08:03:39;26.70;40.00
21275;DHT22;36472;52.170;20.884;2023-02-13T08:06:09;26.80;40.00
21275;DHT22;36472;52.170;20.884;2023-02-13T08:08:39;26.80;40.00
21275;DHT22;36472;52.170;20.884;2023-02-13T08:11:23;26.80;39.90
21275;DHT22;36472;52.170;20.884;2023-02-13T08:14:13;26.90;39.70
21275;DHT22;36472;52.170;20.884;2023-02-13T08:16:42;26.90;39.70
21275;DHT22;36472;52.170;20.884;2023-02-13T08:19:11;26.80;39.60
21275;DHT22;36472;52.170;20.884;2023-02-13T08:21:41;26.80;39.50
21275;DHT22;36472;52.170;20.884;2023-02-13T08:24:11;26.90;39.70
21275;DHT22;36472;52.170;20.884;2023-02-13T08:26:40;26.80;39.40
21275;DHT22;36472;52.170;20.884;2023-02-13T08:29:10;26.90;39.50
21275;DHT22;36472;52.170;20.884;2023-02-13T08:31:39;26.90;39.40
21275;DHT22;36472;52.170;20.884;2023-02-13T08:34:08;26.90;39.40
21275;DHT22;36472;52.170;20.884;2023-02-13T08:36:37;26.90;39.40
21275;DHT22;36472;52.170;20.884;2023-02-13T08:39:09;27.00;39.30
21275;DHT22;36472;52.170;20.884;2023-02-13T08:41:38;27.00;39.10
21275;DHT22;36472;52.170;20.884;2023-02-13T08:44:08;27.10;39.20
21275;DHT22;36472;52.170;20.884;2023-02-13T08:46:37;27.20;39.00
21275;DHT22;36472;52.170;20.884;2023-02-13T08:49:06;27.30;39.00
21275;DHT22;36472;52.170;20.884;2023-02-13T08:51:35;27.40;39.10
21275;DHT22;36472;52.170;20.884;2023-02-13T08:54:04;27.40;38.90
21275;DHT22;36472;52.170;20.884;2023-02-13T08:56:35;27.50;38.60
21275;DHT22;36472;52.170;20.884;2023-02-13T08:59:04;27.50;38.60
21275;DHT22;36472;52.170;20.884;2023-02-13T09:01:33;27.40;38.40
21275;DHT22;36472;52.170;20.884;2023-02-13T09:04:02;27.40;38.60
21275;DHT22;36472;52.170;20.884;2023-02-13T09:06:31;27.40;38.50
21275;DHT22;36472;52.170;20.884;2023-02-13T09:09:00;27.50;38.60
21275;DHT22;36472;52.170;20.884;2023-02-13T09:11:31;27.40;38.40
21275;DHT22;36472;52.170;20.884;2023-02-13T09:14:01;27.40;38.40
21275;DHT22;36472;52.170;20.884;2023-02-13T09:16:30;27.30;38.30
21275;DHT22;36472;52.170;20.884;2023-02-13T09:18:59;27.20;38.50
21275;DHT22;36472;52.170;20.884;2023-02-13T09:21:28;27.00;38.50
21275;DHT22;36472;52.170;20.884;2023-02-13T09:23:57;27.00;38.80
21275;DHT22;36472;52.170;20.884;2023-02-13T09:26:26;26.90;39.10
21275;DHT22;36472;52.170;20.884;2023-02-13T09:28:55;26.90;39.10
21275;DHT22;36472;52.170;20.884;2023-02-13T09:31:26;26.70;39.20
21275;DHT22;36472;52.170;20.884;2023-02-13T09:33:56;26.80;39.40
21275;DHT22;36472;52.170;20.884;2023-02-13T09:36:25;26.80;39.30
21275;DHT22;36472;52.170;20.884;2023-02-13T09:38:55;26.80;39.60
21275;DHT22;36472;52.170;20.884;2023-02-13T09:41:27;26.90;39.70
21275;DHT22;36472;52.170;20.884;2023-02-13T09:44:01;26.90;39.70
21275;DHT22;36472;52.170;20.884;2023-02-13T09:46:36;26.90;39.60
21275;DHT22;36472;52.170;20.884;2023-02-13T09:49:10;26.90;39.60
21275;DHT22;36472;52.170;20.884;2023-02-13T09:51:42;26.90;39.80
21275;DHT22;36472;52.170;20.884;2023-02-13T09:54:15;26.90;40.10
21275;DHT22;36472;52.170;20.884;2023-02-13T09:56:50;27.00;40.20
21275;DHT22;36472;52.170;20.884;2023-02-13T09:59:38;27.00;40.40
21275;DHT22;36472;52.170;20.884;2023-02-13T10:02:40;27.00;40.20
21275;DHT22;36472;52.170;20.884;2023-02-13T10:05:44;26.90;40.20
21275;DHT22;36472;52.170;20.884;2023-02-13T10:08:32;27.00;40.00
21275;DHT22;36472;52.170;20.884;2023-02-13T10:11:22;26.90;39.80
21275;DHT22;36472;52.170;20.884;2023-02-13T10:14:10;27.00;39.90
21275;DHT22;36472;52.170;20.884;2023-02-13T10:16:46;27.00;40.00
21275;DHT22;36472;52.170;20.884;2023-02-13T10:19:29;27.00;40.20
21275;DHT22;36472;52.170;20.884;2023-02-13T10:22:09;27.00;40.30
21275;DHT22;36472;52.170;20.884;2023-02-13T10:24:45;27.00;40.10
21275;DHT22;36472;52.170;20.884;2023-02-13T10:27:20;27.10;40.30
21275;DHT22;36472;52.170;20.884;2023-02-13T10:29:55;27.20;40.40
21275;DHT22;36472;52.170;20.884;2023-02-13T10:32:41;27.20;40.10
21275;DHT22;36472;52.170;20.884;2023-02-13T10:35:22;27.20;40.10
21275;DHT22;36472;52.170;20.884;2023-02-13T10:37:57;27.20;40.20
21275;DHT22;36472;52.170;20.884;2023-02-13T10:40:31;27.20;40.00
21275;DHT22;36472;52.170;20.884;2023-02-13T10:43:08;27.20;39.90
21275;DHT22;36472;52.170;20.884;2023-02-13T10:45:53;27.20;40.10
21275;DHT22;36472;52.170;20.884;2023-02-13T10:48:40;27.30;40.10
21275;DHT22;36472;52.170;20.884;2023-02-13T10:51:28;27.20;40.80
21275;DHT22;36472;52.170;20.884;2023-02-13T10:54:25;27.20;40.30
21275;DHT22;36472;52.170;20.884;2023-02-13T10:57:15;27.10;40.40
21275;DHT22;36472;52.170;20.884;2023-02-13T11:00:01;27.10;40.90
21275;DHT22;36472;52.170;20.884;2023-02-13T11:02:38;27.10;41.00
21275;DHT22;36472;52.170;20.884;2023-02-13T11:05:14;27.20;41.30
21275;DHT22;36472;52.170;20.884;2023-02-13T11:07:47;27.20;41.10
21275;DHT22;36472;52.170;20.884;2023-02-13T11:10:19;27.20;41.00
21275;DHT22;36472;52.170;20.884;2023-02-13T11:12:51;27.30;40.70
21275;DHT22;36472;52.170;20.884;2023-02-13T11:15:24;27.30;40.80
21275;DHT22;36472;52.170;20.884;2023-02-13T11:17:57;27.30;40.50
21275;DHT22;36472;52.170;20.884;2023-02-13T11:20:32;27.40;40.40
21275;DHT22;36472;52.170;20.884;2023-02-13T11:23:32;27.40;40.40
21275;DHT22;36472;52.170;20.884;2023-02-13T11:26:06;27.40;40.40
21275;DHT22;36472;52.170;20.884;2023-02-13T11:28:43;27.40;40.40
21275;DHT22;36472;52.170;20.884;2023-02-13T11:31:22;27.40;40.70
21275;DHT22;36472;52.170;20.884;2023-02-13T11:33:54;27.40;40.70
21275;DHT22;36472;52.170;20.884;2023-02-13T11:36:28;27.40;40.50
21275;DHT22;36472;52.170;20.884;2023-02-13T11:39:01;27.40;40.60
21275;DHT22;36472;52.170;20.884;2023-02-13T11:41:38;27.50;40.80
21275;DHT22;36472;52.170;20.884;2023-02-13T11:44:20;27.50;40.80
21275;DHT22;36472;52.170;20.884;2023-02-13T11:46:54;27.60;40.50
21275;DHT22;36472;52.170;20.884;2023-02-13T11:49:27;27.60;40.30
21275;DHT22;36472;52.170;20.884;2023-02-13T11:52:01;27.60;40.50
21275;DHT22;36472;52.170;20.884;2023-02-13T11:54:34;27.70;40.10
21275;DHT22;36472;52.170;20.884;2023-02-13T11:57:18;27.70;39.90
21275;DHT22;36472;52.170;20.884;2023-02-13T11:59:50;27.60;40.00
21275;DHT22;36472;52.170;20.884;2023-02-13T12:02:22;27.60;39.70
21275;DHT22;36472;52.170;20.884;2023-02-13T12:04:53;27.60;39.70
21275;DHT22;36472;52.170;20.884;2023-02-13T12:07:42;27.60;39.90
21275;DHT22;36472;52.170;20.884;2023-02-13T12:10:21;27.60;39.80
21275;DHT22;36472;52.170;20.884;2023-02-13T12:12:53;27.70;39.70
21275;DHT22;36472;52.170;20.884;2023-02-13T12:15:25;27.60;39.30
21275;DHT22;36472;52.170;20.884;2023-02-13T12:18:04;27.70;39.50
21275;DHT22;36472;52.170;20.884;2023-02-13T12:20:48;27.50;39.00
21275;DHT22;36472;52.170;20.884;2023-02-13T12:23:33;27.50;39.50
21275;DHT22;36472;52.170;20.884;2023-02-13T12:26:22;27.40;39.40
21275;DHT22;36472;52.170;20.884;2023-02-13T12:29:09;27.30;39.30
21275;DHT22;36472;52.170;20.884;2023-02-13T12:32:00;27.30;39.40
21275;DHT22;36472;52.170;20.884;2023-02-13T12:35:00;27.40;40.10
21275;DHT22;36472;52.170;20.884;2023-02-13T12:37:54;27.40;39.30
21275;DHT22;36472;52.170;20.884;2023-02-13T12:40:44;27.40;39.40
21275;DHT22;36472;52.170;20.884;2023-02-13T12:46:53;27.30;39.10
21275;DHT22;36472;52.170;20.884;2023-02-13T12:53:11;27.30;39.00
21275;DHT22;36472;52.170;20.884;2023-02-13T12:59:06;27.30;38.70
21275;DHT22;36472;52.170;20.884;2023-02-13T13:05:31;27.30;38.90
21275;DHT22;36472;52.170;20.884;2023-02-13T13:08:30;27.30;38.90
21275;DHT22;36472;52.170;20.884;2023-02-13T13:11:28;27.40;39.00
21275;DHT22;36472;52.170;20.884;2023-02-13T13:14:19;27.30;38.80
21275;DHT22;36472;52.170;20.884;2023-02-13T13:17:00;27.40;38.80
21275;DHT22;36472;52.170;20.884;2023-02-13T13:19:43;27.30;38.90
21275;DHT22;36472;52.170;20.884;2023-02-13T13:22:24;27.40;39.10
21275;DHT22;36472;52.170;20.884;2023-02-13T13:25:03;27.40;38.90
21275;DHT22;36472;52.170;20.884;2023-02-13T13:27:43;27.40;38.90
21275;DHT22;36472;52.170;20.884;2023-02-13T13:30:19;27.30;38.90
21275;DHT22;36472;52.170;20.884;2023-02-13T13:32:59;27.30;38.90
21275;DHT22;36472;52.170;20.884;2023-02-13T13:35:32;27.30;38.70
21275;DHT22;36472;52.170;20.884;2023-02-13T13:38:10;27.40;38.90
21275;DHT22;36472;52.170;20.884;2023-02-13T13:40:48;27.20;38.70
21275;DHT22;36472;52.170;20.884;2023-02-13T13:43:28;27.20;38.90
21275;DHT22;36472;52.170;20.884;2023-02-13T13:46:11;27.30;39.00
21275;DHT22;36472;52.170;20.884;2023-02-13T13:49:05;27.20;38.60
21275;DHT22;36472;52.170;20.884;2023-02-13T13:51:41;27.20;38.80
21275;DHT22;36472;52.170;20.884;2023-02-13T13:54:19;27.10;38.90
21275;DHT22;36472;52.170;20.884;2023-02-13T13:57:07;27.00;39.00
21275;DHT22;36472;52.170;20.884;2023-02-13T14:03:23;27.10;39.10
21275;DHT22;36472;52.170;20.884;2023-02-13T14:06:05;27.10;39.10
21275;DHT22;36472;52.170;20.884;2023-02-13T14:12:43;27.30;39.10
21275;DHT22;36472;52.170;20.884;2023-02-13T14:15:49;27.40;38.70
21275;DHT22;36472;52.170;20.884;2023-02-13T14:18:24;27.40;38.60
21275;DHT22;36472;52.170;20.884;2023-02-13T14:20:58;27.50;38.50
21275;DHT22;36472;52.170;20.884;2023-02-13T14:29:32;27.50;38.60
21275;DHT22;36472;52.170;20.884;2023-02-13T14:32:14;27.50;38.40
21275;DHT22;36472;52.170;20.884;2023-02-13T14:34:56;27.50;38.40
21275;DHT22;36472;52.170;20.884;2023-02-13T14:37:31;27.40;38.30
21275;DHT22;36472;52.170;20.884;2023-02-13T14:43:34;27.30;38.40
21275;DHT22;36472;52.170;20.884;2023-02-13T14:46:19;27.30;38.60
21275;DHT22;36472;52.170;20.884;2023-02-13T14:48:56;27.30;38.60
21275;DHT22;36472;52.170;20.884;2023-02-13T14:51:35;27.30;38.70
21275;DHT22;36472;52.170;20.884;2023-02-13T14:54:17;27.30;38.70
21275;DHT22;36472;52.170;20.884;2023-02-13T14:59:47;27.30;38.70
21275;DHT22;36472;52.170;20.884;2023-02-13T15:02:22;27.30;38.60
21275;DHT22;36472;52.170;20.884;2023-02-13T15:04:54;27.30;38.70
21275;DHT22;36472;52.170;20.884;2023-02-13T15:07:30;27.30;38.60
21275;DHT22;36472;52.170;20.884;2023-02-13T15:10:23;27.30;38.70
21275;DHT22;36472;52.170;20.884;2023-02-13T15:13:04;27.20;38.50
21275;DHT22;36472;52.170;20.884;2023-02-13T15:15:35;27.20;38.70
21275;DHT22;36472;52.170;20.884;2023-02-13T15:18:09;27.20;38.80
21275;DHT22;36472;52.170;20.884;2023-02-13T15:20:45;27.30;38.80
21275;DHT22;36472;52.170;20.884;2023-02-13T15:23:20;27.20;38.60
21275;DHT22;36472;52.170;20.884;2023-02-13T15:25:57;27.30;38.70
21275;DHT22;36472;52.170;20.884;2023-02-13T15:28:28;27.40;38.70
21275;DHT22;36472;52.170;20.884;2023-02-13T15:31:00;27.10;38.80
21275;DHT22;36472;52.170;20.884;2023-02-13T15:33:40;27.10;38.70
21275;DHT22;36472;52.170;20.884;2023-02-13T15:36:16;27.20;38.70
21275;DHT22;36472;52.170;20.884;2023-02-13T15:38:56;27.20;38.60
21275;DHT22;36472;52.170;20.884;2023-02-13T15:41:29;27.10;38.60
21275;DHT22;36472;52.170;20.884;2023-02-13T15:44:01;27.20;38.60
21275;DHT22;36472;52.170;20.884;2023-02-13T15:46:31;27.20;38.40
21275;DHT22;36472;52.170;20.884;2023-02-13T15:49:05;27.30;38.40
21275;DHT22;36472;52.170;20.884;2023-02-13T15:51:36;27.20;38.30
21275;DHT22;36472;52.170;20.884;2023-02-13T15:54:22;27.20;38.20
21275;DHT22;36472;52.170;20.884;2023-02-13T15:56:56;27.20;38.40
21275;DHT22;36472;52.170;20.884;2023-02-13T15:59:32;27.10;38.30
21275;DHT22;36472;52.170;20.884;2023-02-13T16:02:08;27.10;38.60
21275;DHT22;36472;52.170;20.884;2023-02-13T16:04:42;27.10;38.60
21275;DHT22;36472;52.170;20.884;2023-02-13T16:07:13;27.00;38.60
21275;DHT22;36472;52.170;20.884;2023-02-13T16:09:44;27.00;38.70
21275;DHT22;36472;52.170;20.884;2023-02-13T16:12:22;27.00;38.70
21275;DHT22;36472;52.170;20.884;2023-02-13T16:14:58;27.00;38.80
21275;DHT22;36472;52.170;20.884;2023-02-13T16:17:32;26.90;38.70
21275;DHT22;36472;52.170;20.884;2023-02-13T16:20:05;27.00;38.70
21275;DHT22;36472;52.170;20.884;2023-02-13T16:22:46;27.00;38.80
21275;DHT22;36472;52.170;20.884;2023-02-13T16:25:23;27.00;38.70
21275;DHT22;36472;52.170;20.884;2023-02-13T16:27:57;27.00;38.70
21275;DHT22;36472;52.170;20.884;2023-02-13T16:30:32;27.00;38.60
21275;DHT22;36472;52.170;20.884;2023-02-13T16:33:25;27.10;38.70
21275;DHT22;36472;52.170;20.884;2023-02-13T16:35:57;27.10;38.60
21275;DHT22;36472;52.170;20.884;2023-02-13T16:38:30;27.10;38.60
21275;DHT22;36472;52.170;20.884;2023-02-13T16:41:04;27.10;38.40
21275;DHT22;36472;52.170;20.884;2023-02-13T16:43:55;27.00;38.40
21275;DHT22;36472;52.170;20.884;2023-02-13T16:46:33;27.00;38.40